Aviation Digital Data Service (ADDS)

Output produced by METARs form (1937 UTC 25 March 2017)
found at http://www.aviationweather.gov/adds/metars/
 
UKKM 251930Z AUTO 12002MPS 7000 FEW100/// 02/M01 Q1015
UKBB 251930Z 17002MPS 9999 OVC036 02/01 Q1016 R88/290050 NOSIG
TAF UKBB 251702Z 2518/2618 21003G08MPS 5000 -RA BR OVC007 
     TEMPO 2518/2603 15006G12MPS 1000 SHRASN BR BKN003 BKN012CB 
     FM260300 08005G10MPS 6000 BKN007 
     TEMPO 2603/2609 1400 -SHRASN BR BKN004 SCT015CB 
     TEMPO 2613/2618 03004MPS TX05/2612Z TN00/2604Z
       
UKBB 251930Z 17002MPS 9999 OVC036 02/01 Q1016 R88/290050 NOSIG
TAF UKBB 251702Z 2518/2618 21003G08MPS 5000 -RA BR OVC007 
     TEMPO 2518/2603 15006G12MPS 1000 SHRASN BR BKN003 BKN012CB 
     FM260300 08005G10MPS 6000 BKN007 
     TEMPO 2603/2609 1400 -SHRASN BR BKN004 SCT015CB 
     TEMPO 2613/2618 03004MPS TX05/2612Z TN00/2604Z
       
UKDD 251930Z 07003MPS CAVOK 03/M07 Q1016 R08/090070 NOSIG
TAF UKDD 251701Z 2518/2618 35004MPS 9999 BKN030 
     BECMG 2603/2605 09005MPS 
     TEMPO 2605/2618 2100 -SHRA BKN012CB TX08/2612Z TN00/2602Z
       
UKDE 251930Z 34003MPS CAVOK 02/M07 Q1016 R02/210370 NOSIG
TAF UKDE 251701Z 2518/2603 34004MPS 5000 BR BKN030CB 
     TEMPO 2521/2603 2100 BR BKN007 TX04/2518Z TN00/2603Z
       
UKDR 251930Z 00000MPS CAVOK 04/M07 Q1016 R36/09//70 NOSIG
TAF UKDR 251710Z 2518/2618 VRB01MPS 9999 BKN015 SCT020CB 
     TEMPO 2522/2618 1800 -SHRA BR BKN005 BKN015CB TX07/2612Z TN02/2602Z
       
UKHH 251930Z 00000MPS CAVOK 03/M07 Q1016 R25/0///67 NOSIG
TAF UKHH 251710Z 2518/2603 30003MPS 9999 BKN013 
     TEMPO 2518/2524 2100 -SHRA BKN007 BKN020CB TX04/2518Z TN00/2603Z
       
UKKK 251930Z 16002MPS CAVOK 02/M00 Q1015 R26/290058 NOSIG
TAF COR UKKK 251709Z 2518/2618 21003G08MPS 4000 -RA BR OVC010 
     TEMPO 2518/2603 23005G11MPS 1000 SHRASN BR BKN003 BKN012CB 
     BECMG 2603/2604 27005G11MPS 5000 BR BKN015 
     TEMPO 2604/2609 1400 SHRASN BR BKN004 BKN012CB TX08/2612Z TN00/2603Z
       
UKKM 251930Z AUTO 12002MPS 7000 FEW100/// 02/M01 Q1015
UKLI 251900Z 27003MPS 9999 SCT043 BKN100 08/M04 Q1016 R28/090070 NOSIG
TAF UKLI 251705Z 2518/2603 26005MPS 9999 BKN015CB 
     TEMPO 2518/2523 34007G12MPS 2100 -SHRA BKN007 BKN011CB TX08/2518Z TN03/2521Z
       
UKLL 251930Z 32005MPS 290V350 CAVOK 06/M06 Q1015 R31/D NOSIG
TAF UKLL 251705Z 2518/2618 32005G10MPS 2100 BR BKN007 
     TEMPO 2518/2608 35009G14MPS 0500 SHRASN FG BKN002 BKN015CB 
     BECMG 2608/2610 36006G12MPS 4000 BR BKN010 
     TEMPO 2610/2618 1400 -SHRA BKN003 BKN020CB TX06/2613Z TN00/2604Z
       
UKLN 251930Z 00000MPS 9999 SCT033CB BKN100 07/M03 Q1016 R33/09//70 NOSIG
TAF UKLN 251713Z 2518/2603 30005G10MPS 9999 BKN033CB 
     TEMPO 2521/2603 1000 SHRASN BR BKN003 BKN020CB TX07/2518Z TN02/2603Z
       
UKLR 251500Z 27008MPS 230V310 9999 SCT020CB OVC100 07/M01 Q1016 NOSIG
TAF UKLR 251412Z 2515/2524 27006MPS 9999 BKN010 SCT017CB 
     TEMPO 2515/2518 31008G13MPS 2100 -SHRA BR SCT005 BKN010CB 
     TEMPO 2518/2524 34008G13MPS 1000 SHRASN OVC003 BKN010CB TX07/2515Z TN01/2524Z
       
UKLU 251900Z 00000MPS 9999 OVC050 08/00 Q1018 NOSIG
TAF UKLU 251705Z 2518/2603 VRB02MPS 9999 BKN040 
     TEMPO 2518/2524 32005MPS TX10/2518Z TN04/2603Z
       
UKOH 251600Z 29003MPS 260V330 9999 BKN040 10/M01 Q1017 R03/CLRD65 NOSIG
TAF UKOH 251403Z 2515/2524 33005G10MPS 9999 BKN020CB TX11/2515Z TN04/2524Z
       
UKON 251800Z 00000MPS CAVOK 08/M01 Q1016 NOSIG
TAF UKON 251703Z 2518/2603 32003MPS 9999 BKN025CB 
     TEMPO 2518/2603 2100 -SHRA BKN007 BKN020CB TX08/2518Z TN03/2603Z
       
UKOO 251930Z VRB01MPS CAVOK 05/03 Q1016 R34/090060 NOSIG
TAF UKOO 251703Z 2518/2618 20003MPS 2100 BR SCT004 BKN007 SCT017CB 
     TEMPO 2518/2608 0300 -SHRA FG VV002 
     BECMG 2608/2610 15003MPS 4000 -SHRA BR TX07/2612Z TN02/2603Z
       
UKWW 251800Z 00000MPS 9999 SCT030 OVC100 05/M02 Q1015 R31/0///65 TEMPO 2000 -SHRASN BR BKN005 BKN015CB
TAF UKWW 251410Z 2515/2524 30005G10MPS 9999 BKN020 
     TEMPO 2518/2524 2000 -SHRASN BR BKN005 BKN015CB TX06/2515Z TN01/2524Z
       
UKLN 251930Z 00000MPS 9999 SCT033CB BKN100 07/M03 Q1016 R33/09//70 NOSIG
TAF UKLN 251713Z 2518/2603 30005G10MPS 9999 BKN033CB 
     TEMPO 2521/2603 1000 SHRASN BR BKN003 BKN020CB TX07/2518Z TN02/2603Z
       
UKDD 251930Z 07003MPS CAVOK 03/M07 Q1016 R08/090070 NOSIG
TAF UKDD 251701Z 2518/2618 35004MPS 9999 BKN030 
     BECMG 2603/2605 09005MPS 
     TEMPO 2605/2618 2100 -SHRA BKN012CB TX08/2612Z TN00/2602Z
       
UKLI 251900Z 27003MPS 9999 SCT043 BKN100 08/M04 Q1016 R28/090070 NOSIG
TAF UKLI 251705Z 2518/2603 26005MPS 9999 BKN015CB 
     TEMPO 2518/2523 34007G12MPS 2100 -SHRA BKN007 BKN011CB TX08/2518Z TN03/2521Z
       
UKDR 251930Z 00000MPS CAVOK 04/M07 Q1016 R36/09//70 NOSIG
TAF UKDR 251710Z 2518/2618 VRB01MPS 9999 BKN015 SCT020CB 
     TEMPO 2522/2618 1800 -SHRA BR BKN005 BKN015CB TX07/2612Z TN02/2602Z
       
UKLL 251930Z 32005MPS 290V350 CAVOK 06/M06 Q1015 R31/D NOSIG
TAF UKLL 251705Z 2518/2618 32005G10MPS 2100 BR BKN007 
     TEMPO 2518/2608 35009G14MPS 0500 SHRASN FG BKN002 BKN015CB 
     BECMG 2608/2610 36006G12MPS 4000 BR BKN010 
     TEMPO 2610/2618 1400 -SHRA BKN003 BKN020CB TX06/2613Z TN00/2604Z
       
UKDE 251930Z 34003MPS CAVOK 02/M07 Q1016 R02/210370 NOSIG
TAF UKDE 251701Z 2518/2603 34004MPS 5000 BR BKN030CB 
     TEMPO 2521/2603 2100 BR BKN007 TX04/2518Z TN00/2603Z
       
UKON 251800Z 00000MPS CAVOK 08/M01 Q1016 NOSIG
TAF UKON 251703Z 2518/2603 32003MPS 9999 BKN025CB 
     TEMPO 2518/2603 2100 -SHRA BKN007 BKN020CB TX08/2518Z TN03/2603Z
       
UKOO 251930Z VRB01MPS CAVOK 05/03 Q1016 R34/090060 NOSIG
TAF UKOO 251703Z 2518/2618 20003MPS 2100 BR SCT004 BKN007 SCT017CB 
     TEMPO 2518/2608 0300 -SHRA FG VV002 
     BECMG 2608/2610 15003MPS 4000 -SHRA BR TX07/2612Z TN02/2603Z
       
UKHH 251930Z 00000MPS CAVOK 03/M07 Q1016 R25/0///67 NOSIG
TAF UKHH 251710Z 2518/2603 30003MPS 9999 BKN013 
     TEMPO 2518/2524 2100 -SHRA BKN007 BKN020CB TX04/2518Z TN00/2603Z
       
UKLR 251500Z 27008MPS 230V310 9999 SCT020CB OVC100 07/M01 Q1016 NOSIG
TAF UKLR 251412Z 2515/2524 27006MPS 9999 BKN010 SCT017CB 
     TEMPO 2515/2518 31008G13MPS 2100 -SHRA BR SCT005 BKN010CB 
     TEMPO 2518/2524 34008G13MPS 1000 SHRASN OVC003 BKN010CB TX07/2515Z TN01/2524Z
       
UKLU 251900Z 00000MPS 9999 OVC050 08/00 Q1018 NOSIG
TAF UKLU 251705Z 2518/2603 VRB02MPS 9999 BKN040 
     TEMPO 2518/2524 32005MPS TX10/2518Z TN04/2603Z
       
UKKK 251930Z 16002MPS CAVOK 02/M00 Q1015 R26/290058 NOSIG
TAF COR UKKK 251709Z 2518/2618 21003G08MPS 4000 -RA BR OVC010 
     TEMPO 2518/2603 23005G11MPS 1000 SHRASN BR BKN003 BKN012CB 
     BECMG 2603/2604 27005G11MPS 5000 BR BKN015 
     TEMPO 2604/2609 1400 SHRASN BR BKN004 BKN012CB TX08/2612Z TN00/2603Z